createdAt,value
2023-03-17T00:39:36.096Z,18.94
2023-03-17T00:40:36.130Z,18.91
2023-03-17T00:41:36.118Z,18.91
2023-03-17T00:42:36.128Z,18.87
2023-03-17T00:43:36.165Z,18.84
2023-03-17T00:44:36.125Z,18.82
2023-03-17T00:45:36.180Z,18.85
2023-03-17T00:46:36.346Z,18.91
2023-03-17T00:47:36.194Z,18.85
2023-03-17T00:48:36.193Z,18.90
2023-03-17T00:49:36.205Z,18.88
2023-03-17T00:50:36.202Z,18.84
2023-03-17T01:57:37.535Z,18.23
2023-03-17T01:58:37.571Z,18.23
2023-03-17T01:59:37.538Z,18.21
2023-03-17T02:00:37.563Z,18.21
2023-03-17T02:01:37.588Z,18.23
2023-03-17T02:02:37.545Z,18.16
2023-03-17T02:03:37.585Z,18.23
2023-03-17T02:04:37.678Z,18.19
2023-03-17T02:05:37.584Z,18.10
2023-03-17T02:06:47.411Z,18.13
2023-03-17T02:07:38.587Z,18.13
2023-03-17T02:08:37.551Z,18.11
2023-03-17T02:09:37.538Z,18.08
2023-03-17T02:10:37.543Z,18.08
2023-03-17T02:11:37.515Z,18.02
2023-03-17T02:12:37.473Z,18.09
2023-03-17T02:13:37.565Z,18.09
2023-03-17T02:14:37.470Z,18.03
2023-03-17T02:15:37.464Z,18.09
2023-03-17T02:16:37.479Z,18.01
2023-03-17T02:17:37.388Z,17.98
2023-03-17T02:18:37.369Z,18.04
2023-03-17T02:19:37.350Z,18.01
2023-03-17T03:14:38.460Z,17.61
2023-03-17T03:15:38.546Z,17.61
2023-03-17T03:16:38.537Z,17.56
2023-03-17T03:17:38.541Z,17.59
2023-03-17T03:18:38.543Z,17.61
2023-03-17T03:19:38.564Z,17.48
2023-03-17T03:20:38.560Z,17.50
2023-03-17T03:21:38.602Z,17.48
2023-03-17T03:22:38.640Z,17.48
2023-03-17T03:23:38.655Z,17.50
2023-03-17T03:24:38.709Z,17.53
2023-03-17T03:25:38.702Z,17.52
2023-03-17T03:26:38.725Z,17.48
2023-03-17T03:27:38.763Z,17.47
2023-03-17T03:28:38.805Z,17.53
2023-03-17T03:29:38.795Z,17.52
2023-03-17T03:30:38.841Z,17.47
2023-03-17T03:31:38.852Z,17.49
2023-03-17T03:32:38.972Z,17.52
2023-03-17T03:33:38.895Z,17.49
2023-03-17T03:34:38.941Z,17.50
2023-03-17T03:35:38.996Z,17.44
2023-03-17T03:36:39.022Z,17.47
2023-03-17T03:37:39.025Z,17.46
2023-03-17T03:38:39.066Z,17.41
2023-03-17T03:39:39.084Z,17.45
2023-03-17T03:40:39.087Z,17.52
2023-03-17T03:41:39.116Z,17.45
2023-03-17T03:42:39.134Z,17.49
2023-03-17T03:43:39.158Z,17.51
2023-03-17T03:44:39.145Z,17.47
2023-03-17T03:45:39.180Z,17.39
2023-03-17T03:46:39.310Z,17.41
2023-03-17T03:47:39.242Z,17.39
2023-03-17T03:48:39.291Z,17.36
2023-03-17T03:49:39.272Z,17.28
2023-03-17T03:50:39.321Z,17.37
2023-03-17T03:51:39.353Z,17.32
2023-03-17T03:52:39.369Z,17.31
2023-03-17T03:53:39.387Z,17.34
2023-03-17T03:54:39.411Z,17.32
2023-03-17T03:55:39.456Z,17.32
2023-03-17T03:56:39.512Z,17.29
2023-03-17T03:57:39.521Z,17.34
2023-03-17T03:58:39.551Z,17.37
2023-03-17T03:59:39.551Z,17.34
2023-03-17T04:00:39.581Z,17.33
2023-03-17T04:01:39.620Z,17.33
2023-03-17T04:02:39.645Z,17.28
2023-03-17T04:03:39.638Z,17.30
2023-03-17T04:04:39.698Z,17.27
2023-03-17T04:05:39.644Z,17.30
2023-03-17T04:06:39.713Z,17.30
2023-03-17T04:07:39.702Z,17.30
2023-03-17T04:08:39.742Z,17.31
2023-03-17T04:09:39.764Z,17.28
2023-03-17T04:10:39.786Z,17.24
2023-03-17T04:11:39.842Z,17.21
2023-03-17T04:12:39.832Z,17.22
2023-03-17T04:13:39.828Z,17.24
2023-03-17T04:14:39.884Z,17.22
2023-03-17T04:15:39.889Z,17.22
2023-03-17T04:16:42.858Z,17.19
2023-03-17T04:17:39.898Z,17.19
2023-03-17T04:18:39.926Z,17.24
2023-03-17T04:19:39.839Z,17.22
2023-03-17T04:20:39.804Z,17.24
2023-03-17T04:21:39.794Z,17.18
2023-03-17T04:22:39.724Z,17.28
2023-03-17T04:23:39.726Z,17.21
2023-03-17T04:24:39.679Z,17.22
2023-03-17T04:25:39.641Z,17.16
2023-03-17T04:26:39.646Z,17.20
2023-03-17T04:27:39.593Z,17.20
2023-03-17T04:28:39.559Z,17.20
2023-03-17T04:29:39.536Z,17.22
2023-03-17T04:30:39.549Z,17.17
2023-03-17T04:31:39.486Z,17.19
2023-03-17T04:32:39.486Z,17.14
2023-03-17T04:33:39.463Z,17.18
2023-03-17T04:34:39.426Z,17.14
2023-03-17T04:35:39.413Z,17.18
2023-03-17T04:36:39.383Z,17.18
2023-03-17T04:37:39.345Z,17.17
2023-03-17T04:38:39.342Z,17.11
2023-03-17T04:39:39.302Z,17.14
2023-03-17T04:40:39.277Z,17.19
2023-03-17T04:41:39.254Z,17.13
2023-03-17T04:42:39.208Z,17.13
2023-03-17T04:43:39.194Z,17.14
2023-03-17T04:44:39.157Z,17.16
2023-03-17T04:45:39.187Z,17.18
2023-03-17T04:46:39.121Z,17.16
2023-03-17T04:47:39.083Z,17.10
2023-03-17T04:48:39.050Z,17.13
2023-03-17T04:49:39.050Z,17.14
2023-03-17T04:50:38.978Z,17.19
2023-03-17T04:51:38.969Z,17.19
2023-03-17T04:52:38.929Z,17.11
2023-03-17T04:53:38.941Z,17.13
2023-03-17T04:54:38.883Z,17.13
2023-03-17T04:55:38.902Z,17.16
2023-03-17T04:56:38.813Z,17.17
2023-03-17T04:57:38.807Z,17.22
2023-03-17T04:58:38.772Z,17.22
2023-03-17T04:59:38.787Z,17.17
2023-03-17T05:00:38.844Z,17.19
2023-03-17T05:01:39.364Z,17.19
2023-03-17T05:02:38.965Z,17.20
2023-03-17T05:03:38.880Z,17.19
2023-03-17T05:04:38.906Z,17.16
2023-03-17T05:05:38.934Z,17.20
2023-03-17T05:06:38.981Z,17.19
2023-03-17T05:07:39.037Z,17.22
2023-03-17T05:08:39.044Z,17.16
2023-03-17T05:09:39.028Z,17.14
2023-03-17T05:10:39.089Z,17.17
2023-03-17T05:11:39.108Z,17.11
2023-03-17T05:12:39.163Z,17.16
2023-03-17T05:13:39.181Z,17.22
2023-03-17T05:14:39.200Z,17.14
2023-03-17T05:15:39.204Z,17.16
2023-03-17T05:16:39.266Z,17.17
2023-03-17T05:17:39.266Z,17.16
2023-03-17T05:18:39.311Z,17.14
2023-03-17T05:19:39.333Z,17.19
2023-03-17T05:20:39.363Z,17.20
2023-03-17T05:21:39.383Z,17.14
2023-03-17T05:22:39.387Z,17.15
2023-03-17T05:23:39.411Z,17.17
2023-03-17T05:24:39.414Z,17.16
2023-03-17T05:25:39.461Z,17.19
2023-03-17T05:26:39.490Z,17.14
2023-03-17T05:27:39.533Z,17.17
2023-03-17T05:28:39.549Z,17.19
2023-03-17T05:29:39.588Z,17.17
2023-03-17T05:30:39.666Z,17.16
2023-03-17T05:31:39.667Z,17.13
2023-03-17T05:32:39.694Z,17.23
2023-03-17T05:33:39.687Z,17.19
2023-03-17T05:34:39.762Z,17.16
2023-03-17T05:35:39.777Z,17.17
2023-03-17T05:36:39.794Z,17.17
2023-03-17T05:37:39.823Z,17.22
2023-03-17T05:38:39.847Z,17.17
2023-03-17T05:39:39.891Z,17.20
2023-03-17T05:40:39.911Z,17.23
2023-03-17T05:41:39.933Z,17.19
2023-03-17T05:42:39.980Z,17.17
2023-03-17T05:43:39.994Z,17.23
2023-03-17T05:44:40.025Z,17.19
2023-03-17T05:45:40.063Z,17.18
2023-03-17T05:46:40.043Z,17.15
2023-03-17T05:47:40.117Z,17.18
2023-03-17T05:48:40.135Z,17.19
2023-03-17T05:49:40.136Z,17.20
2023-03-17T05:50:40.181Z,17.15
2023-03-17T05:51:40.198Z,17.22
2023-03-17T05:52:40.211Z,17.17
2023-03-17T05:53:40.329Z,17.15
2023-03-17T05:54:40.268Z,17.20
2023-03-17T05:55:40.305Z,17.14
2023-03-17T05:56:40.322Z,17.22
2023-03-17T05:57:40.371Z,17.22
2023-03-17T05:58:40.405Z,17.19
2023-03-17T05:59:40.371Z,17.17
2023-03-17T06:00:47.379Z,17.14
2023-03-17T06:01:40.372Z,17.22
2023-03-17T06:02:40.410Z,17.23
2023-03-17T06:03:40.388Z,17.18
2023-03-17T06:04:40.323Z,17.15
2023-03-17T06:05:40.273Z,17.20
2023-03-17T06:06:40.259Z,17.16
2023-03-17T06:07:51.725Z,17.20
2023-03-17T06:08:41.199Z,17.22
2023-03-17T06:09:40.193Z,17.22
2023-03-17T06:10:40.150Z,17.16
2023-03-17T06:11:40.091Z,17.14
2023-03-17T06:12:40.110Z,17.19
2023-03-17T06:13:40.063Z,17.13
2023-03-17T06:14:40.025Z,17.13
2023-03-17T06:15:40.139Z,17.19
2023-03-17T06:16:40.040Z,17.19
2023-03-17T06:17:40.019Z,17.15
2023-03-17T06:18:39.968Z,17.17
2023-03-17T06:19:39.946Z,17.16
2023-03-17T06:20:39.999Z,17.13
2023-03-17T06:21:40.019Z,17.13
2023-03-17T06:22:51.681Z,17.10
2023-03-17T06:23:41.006Z,17.13
2023-03-17T06:24:39.979Z,17.16
2023-03-17T06:25:39.953Z,17.19
2023-03-17T06:26:39.931Z,17.13
2023-03-17T06:27:39.891Z,17.17
2023-03-17T06:28:39.872Z,17.14
2023-03-17T06:29:39.865Z,17.13
2023-03-17T06:30:40.902Z,17.10
2023-03-17T06:31:39.913Z,17.13
2023-03-17T06:32:39.811Z,17.10
2023-03-17T06:33:39.786Z,17.10
2023-03-17T06:34:39.782Z,17.23
2023-03-17T06:35:39.899Z,17.31
2023-03-17T06:36:39.852Z,17.45
2023-03-17T06:37:39.869Z,17.49
2023-03-17T06:38:39.906Z,17.45
2023-03-17T06:39:39.920Z,17.38
2023-03-17T06:40:39.971Z,17.28
2023-03-17T06:41:40.253Z,17.34
2023-03-17T06:42:40.121Z,17.43
2023-03-17T06:43:40.070Z,17.45
2023-03-17T06:44:40.103Z,17.76
2023-03-17T06:45:47.162Z,18.55
2023-03-17T06:46:40.177Z,18.85
2023-03-17T06:47:40.249Z,19.18
2023-03-17T06:48:40.105Z,19.06
2023-03-17T06:49:40.087Z,19.06
2023-03-17T06:50:40.072Z,18.98
2023-03-17T06:51:40.047Z,18.92
2023-03-17T06:52:40.036Z,18.94
2023-03-17T06:53:40.016Z,18.94
2023-03-17T06:54:40.012Z,18.91
2023-03-17T06:55:40.044Z,18.88
2023-03-17T06:56:39.985Z,18.87
2023-03-17T06:57:39.994Z,18.82
2023-03-17T06:58:39.993Z,18.80
2023-03-17T06:59:39.984Z,18.82
2023-03-17T07:00:39.929Z,18.75
2023-03-17T07:01:39.966Z,18.67
2023-03-17T07:02:39.897Z,18.70
2023-03-17T07:03:39.916Z,18.69
2023-03-17T07:04:39.958Z,18.64
2023-03-17T07:05:39.880Z,18.63
2023-03-17T07:06:39.846Z,18.58
2023-03-17T07:07:40.255Z,18.64
2023-03-17T07:08:39.796Z,18.60
2023-03-17T07:09:39.795Z,18.60
2023-03-17T07:10:39.802Z,18.58
2023-03-17T07:11:39.784Z,18.50
2023-03-17T07:12:39.748Z,18.55
2023-03-17T07:13:39.806Z,18.57
2023-03-17T07:14:39.825Z,18.49
2023-03-17T07:15:39.858Z,18.44
2023-03-17T07:16:39.903Z,18.40
2023-03-17T07:17:40.259Z,18.42
2023-03-17T07:18:39.927Z,18.45
2023-03-17T07:19:39.972Z,18.37
2023-03-17T07:20:39.974Z,18.36
2023-03-17T07:21:40.051Z,18.36
2023-03-17T07:22:40.058Z,18.34
2023-03-17T07:23:40.089Z,18.33
2023-03-17T07:24:40.101Z,18.31
2023-03-17T07:25:40.126Z,18.28
2023-03-17T07:26:40.301Z,18.19
2023-03-17T07:27:40.229Z,18.25
2023-03-17T07:28:40.278Z,18.21
2023-03-17T07:29:40.277Z,18.17
2023-03-17T07:30:40.315Z,18.19
2023-03-17T07:31:41.212Z,18.21
2023-03-17T07:32:40.445Z,18.16
2023-03-17T07:33:40.408Z,18.17
2023-03-17T07:34:40.438Z,18.14
2023-03-17T07:35:40.477Z,18.07
2023-03-17T07:36:40.609Z,18.05
2023-03-17T07:37:40.772Z,18.10
2023-03-17T07:38:40.601Z,18.04
2023-03-17T07:39:40.626Z,18.02
2023-03-17T07:40:40.614Z,18.04
2023-03-17T07:41:40.641Z,17.99
2023-03-17T07:42:40.782Z,18.02
2023-03-17T07:43:40.719Z,17.98
2023-03-17T07:44:40.781Z,18.01
2023-03-17T07:45:41.092Z,18.02
2023-03-17T07:46:40.821Z,18.02
2023-03-17T07:47:40.807Z,17.96
2023-03-17T07:48:41.057Z,17.93
2023-03-17T07:49:42.324Z,17.96
2023-03-17T07:50:40.957Z,17.95
2023-03-17T07:51:40.948Z,17.95
2023-03-17T07:52:40.976Z,17.98
2023-03-17T07:53:41.040Z,17.92
2023-03-17T07:54:43.014Z,17.92
2023-03-17T07:55:41.094Z,18.02
2023-03-17T07:56:41.127Z,17.99
2023-03-17T07:57:41.259Z,18.08
2023-03-17T07:58:41.222Z,18.00
2023-03-17T07:59:41.239Z,17.93
2023-03-17T08:00:41.298Z,17.94
2023-03-17T08:01:41.498Z,17.88
2023-03-17T08:02:41.437Z,18.00
2023-03-17T08:03:41.910Z,17.90
2023-03-17T08:05:41.348Z,17.90
2023-03-17T08:06:41.355Z,17.88
2023-03-17T08:07:41.409Z,17.87
2023-03-17T08:08:41.456Z,17.87
2023-03-17T08:09:41.424Z,17.81
2023-03-17T08:10:41.418Z,17.88
2023-03-17T08:11:41.470Z,17.85
2023-03-17T08:12:41.485Z,17.78
2023-03-17T08:13:41.651Z,17.83
2023-03-17T08:14:41.563Z,17.79
2023-03-17T08:15:41.550Z,17.81
2023-03-17T08:16:41.706Z,17.76
2023-03-17T08:17:41.790Z,17.75
2023-03-17T08:19:41.754Z,17.70
2023-03-17T08:20:41.766Z,17.76
2023-03-17T08:21:41.716Z,17.70
2023-03-17T08:22:41.807Z,17.69
2023-03-17T08:23:42.279Z,17.72
2023-03-17T08:24:41.832Z,17.73
2023-03-17T08:25:41.880Z,17.72
2023-03-17T08:26:41.892Z,17.69
2023-03-17T08:27:41.974Z,17.70
2023-03-17T08:28:42.183Z,17.69
2023-03-17T08:29:42.140Z,17.64
2023-03-17T08:30:42.154Z,17.97
2023-03-17T08:31:43.586Z,18.06
2023-03-17T08:32:42.390Z,17.91
2023-03-17T08:33:42.381Z,19.46
2023-03-17T08:34:42.253Z,19.37
2023-03-17T08:35:42.327Z,19.55
2023-03-17T08:36:42.370Z,19.93
2023-03-17T08:37:42.783Z,19.83
2023-03-17T08:38:42.377Z,20.28
2023-03-17T08:39:42.399Z,21.15
2023-03-17T08:40:42.432Z,21.09
2023-03-17T08:41:42.438Z,21.77
2023-03-17T08:42:42.783Z,20.56
2023-03-17T08:43:42.491Z,20.19
2023-03-17T08:44:44.087Z,19.75
2023-03-17T08:45:42.578Z,19.52
2023-03-17T08:46:42.575Z,19.36
2023-03-17T08:47:42.537Z,19.29
2023-03-17T08:48:42.585Z,18.97
2023-03-17T08:49:42.580Z,18.90
2023-03-17T08:50:42.584Z,18.81
2023-03-17T08:51:42.584Z,19.06
2023-03-17T08:52:42.583Z,19.41
2023-03-17T08:53:42.787Z,19.33
2023-03-17T08:54:42.641Z,19.21
2023-03-17T08:55:42.622Z,18.90
2023-03-17T08:56:42.664Z,18.99
2023-03-17T08:57:42.680Z,18.70
2023-03-17T08:58:42.767Z,18.88
2023-03-17T08:59:42.784Z,18.86
2023-03-17T09:00:42.773Z,18.72
2023-03-17T09:01:42.909Z,18.60
2023-03-17T09:02:42.993Z,18.60
2023-03-17T09:03:42.941Z,18.54
2023-03-17T09:04:42.981Z,18.76
2023-03-17T09:05:43.011Z,18.88
2023-03-17T09:07:01.186Z,19.14
2023-03-17T09:07:44.108Z,19.30
2023-03-17T09:08:43.137Z,19.74
2023-03-17T09:09:42.993Z,20.05
2023-03-17T09:10:44.413Z,20.21
2023-03-17T09:11:42.957Z,20.45
2023-03-17T09:12:42.962Z,20.61
2023-03-17T09:13:42.920Z,21.16
2023-03-17T09:14:44.496Z,21.07
2023-03-17T09:15:42.906Z,21.23
2023-03-17T09:16:42.855Z,21.26
2023-03-17T09:17:42.807Z,21.49
2023-03-17T09:18:43.004Z,21.52
2023-03-17T09:20:42.787Z,21.68
2023-03-17T09:23:42.887Z,22.02
2023-03-17T09:24:42.890Z,22.09
2023-03-17T09:25:42.916Z,22.26
2023-03-17T09:33:43.338Z,20.92
2023-03-17T09:34:43.094Z,20.59
2023-03-17T09:35:43.136Z,19.85
2023-03-17T09:36:43.153Z,19.43
2023-03-17T09:37:43.197Z,19.30
2023-03-17T09:38:43.380Z,19.16
2023-03-17T09:39:43.191Z,19.15
2023-03-17T09:40:43.156Z,18.79
2023-03-17T09:41:43.157Z,18.91
2023-03-17T09:42:43.163Z,18.65
2023-03-17T09:43:43.193Z,18.33
2023-03-17T09:45:43.809Z,18.07
2023-03-17T09:46:43.284Z,18.33
2023-03-17T09:47:43.261Z,18.32
2023-03-17T09:48:43.290Z,18.59
2023-03-17T09:49:43.297Z,18.61
2023-03-17T09:50:43.291Z,18.90
2023-03-17T09:51:43.291Z,19.10
2023-03-17T09:52:43.293Z,19.27
2023-03-17T09:53:43.362Z,19.37
2023-03-17T09:54:43.345Z,19.87
2023-03-17T09:55:43.408Z,19.91
2023-03-17T09:56:43.371Z,19.98
2023-03-17T09:57:43.462Z,19.92
2023-03-17T09:58:43.454Z,19.79
2023-03-17T09:59:43.542Z,19.70
2023-03-17T10:00:43.549Z,19.71
2023-03-17T10:01:43.652Z,19.47
2023-03-17T10:02:43.609Z,19.53
2023-03-17T10:03:43.823Z,19.58
2023-03-17T10:04:43.612Z,19.56
2023-03-17T10:05:43.592Z,19.30
2023-03-17T10:06:43.702Z,19.24
2023-03-17T10:07:43.628Z,19.02
2023-03-17T10:08:43.645Z,18.78
2023-03-17T10:09:43.714Z,18.70
2023-03-17T10:10:43.930Z,18.55
2023-03-17T10:11:43.668Z,18.37
2023-03-17T10:12:43.725Z,18.66
2023-03-17T10:13:43.723Z,18.44
2023-03-17T10:14:43.702Z,18.37
2023-03-17T10:15:43.736Z,17.84
2023-03-17T10:16:43.710Z,17.59
2023-03-17T10:17:43.757Z,17.36
2023-03-17T10:18:43.764Z,17.13
2023-03-17T10:19:43.775Z,16.98
2023-03-17T10:20:43.789Z,16.87
2023-03-17T10:21:43.822Z,16.63
2023-03-17T10:22:43.828Z,16.64
2023-03-17T10:23:43.908Z,16.52
2023-03-17T10:24:43.909Z,16.50
2023-03-17T10:25:43.955Z,16.44
2023-03-17T10:26:43.956Z,16.32
2023-03-17T10:27:43.977Z,16.27
2023-03-17T10:28:44.001Z,16.10
2023-03-17T10:29:44.631Z,16.03
2023-03-17T10:30:44.091Z,15.79
2023-03-17T10:31:44.134Z,15.73
2023-03-17T10:32:44.199Z,15.69
2023-03-17T10:33:44.192Z,15.78
2023-03-17T10:34:44.286Z,15.66
2023-03-17T10:35:44.278Z,15.73
2023-03-17T10:36:44.288Z,15.70
2023-03-17T10:37:44.336Z,15.64
2023-03-17T10:38:44.987Z,15.58
2023-03-17T10:39:44.416Z,15.52
2023-03-17T10:40:44.461Z,15.52
2023-03-17T10:41:44.527Z,15.39
2023-03-17T10:42:44.761Z,15.41
2023-03-17T10:43:44.598Z,16.97
2023-03-17T10:44:44.834Z,18.12
2023-03-17T10:45:45.351Z,18.80
2023-03-17T10:46:44.762Z,17.46
2023-03-17T10:47:44.713Z,16.84
2023-03-17T10:48:44.783Z,16.42
2023-03-17T10:49:45.334Z,16.37
2023-03-17T10:50:44.862Z,16.40
2023-03-17T10:51:44.953Z,16.52
2023-03-17T10:52:45.001Z,15.77
2023-03-17T10:53:45.101Z,15.59
2023-03-17T10:54:45.321Z,15.63
2023-03-17T10:55:45.134Z,15.88
2023-03-17T10:56:45.196Z,15.89
2023-03-17T10:57:45.215Z,16.13
2023-03-17T10:58:45.311Z,16.26
2023-03-17T10:59:45.348Z,16.65
2023-03-17T11:00:45.346Z,16.98
2023-03-17T11:01:45.382Z,17.33
2023-03-17T11:02:45.433Z,17.55
2023-03-17T11:03:45.602Z,18.29
2023-03-17T11:04:45.545Z,18.58
2023-03-17T11:05:45.574Z,18.83
2023-03-17T11:06:45.660Z,18.97
2023-03-17T11:07:45.719Z,19.06
2023-03-17T11:08:45.728Z,19.33
2023-03-17T11:09:45.788Z,19.63
2023-03-17T11:10:45.813Z,19.71
2023-03-17T11:11:45.860Z,19.94
2023-03-17T11:12:45.820Z,20.63
2023-03-17T11:13:45.868Z,20.72
2023-03-17T11:14:46.393Z,20.76
2023-03-17T11:15:45.890Z,20.79
2023-03-17T11:16:45.972Z,21.12
2023-03-17T11:17:45.902Z,21.38
2023-03-17T11:18:45.909Z,21.46
2023-03-17T11:19:45.927Z,21.73
2023-03-17T11:20:45.918Z,21.90
2023-03-17T11:21:45.978Z,21.98
2023-03-17T11:22:45.984Z,22.05
2023-03-17T11:23:46.045Z,21.95
2023-03-17T11:24:46.047Z,22.42
2023-03-17T11:25:46.055Z,22.92
2023-03-17T11:26:46.077Z,23.03
2023-03-17T11:27:46.184Z,23.39
2023-03-17T11:28:46.126Z,23.70
2023-03-17T11:29:46.159Z,23.99
2023-03-17T13:03:48.909Z,17.26
2023-03-17T13:29:49.494Z,16.88
2023-03-17T13:57:48.492Z,16.39
2023-03-17T13:58:48.503Z,16.97
2023-03-17T13:59:48.476Z,17.64
2023-03-17T14:00:49.103Z,18.89
2023-03-17T14:01:48.512Z,19.40
2023-03-17T14:02:48.548Z,20.26
2023-03-17T14:03:48.572Z,19.92
2023-03-17T14:04:48.570Z,19.48
2023-03-17T14:05:48.593Z,19.54
2023-03-17T14:06:48.591Z,19.65
2023-03-17T14:07:48.582Z,19.68
2023-03-17T14:08:48.594Z,19.86
2023-03-17T14:09:48.617Z,20.01
2023-03-17T14:10:48.647Z,19.83
2023-03-17T14:11:48.637Z,20.09
2023-03-17T14:12:51.079Z,20.16
2023-03-17T14:13:48.697Z,20.13
2023-03-17T14:14:48.752Z,20.33
2023-03-17T14:15:48.757Z,20.32
2023-03-17T14:16:48.765Z,20.36
2023-03-17T14:17:48.766Z,20.51
2023-03-17T14:18:48.748Z,20.66
2023-03-17T14:19:48.773Z,20.58
2023-03-17T14:20:48.781Z,20.68
2023-03-17T14:21:48.839Z,20.65
2023-03-17T14:22:48.794Z,20.64
2023-03-17T14:23:48.818Z,20.61
2023-03-17T14:24:48.765Z,20.82
2023-03-17T14:25:48.816Z,20.92
2023-03-17T14:26:48.830Z,20.79
2023-03-17T14:27:48.836Z,20.82
2023-03-17T14:28:48.881Z,20.94
2023-03-17T14:29:48.808Z,21.11
2023-03-17T14:30:48.815Z,21.17
2023-03-17T14:31:48.933Z,21.09
2023-03-17T14:32:48.917Z,21.03
2023-03-17T14:33:48.901Z,21.03
2023-03-17T14:34:48.870Z,21.08
2023-03-17T14:35:48.969Z,20.94
2023-03-17T14:36:48.930Z,20.91
2023-03-17T14:37:48.927Z,20.88
2023-03-17T14:38:48.977Z,20.83
2023-03-17T14:39:48.946Z,21.02
2023-03-17T14:40:48.955Z,20.99
2023-03-17T14:41:48.999Z,21.02
2023-03-17T14:42:48.943Z,20.99
2023-03-17T14:43:49.002Z,21.05
2023-03-17T14:44:49.012Z,21.09
2023-03-17T14:45:49.049Z,21.02
2023-03-17T14:46:48.982Z,21.02
2023-03-17T14:47:48.975Z,20.79
2023-03-17T14:48:49.051Z,20.77
2023-03-17T14:49:49.054Z,20.81
2023-03-17T14:50:49.062Z,20.76
2023-03-17T14:51:49.019Z,20.84
2023-03-17T14:52:49.068Z,20.76
2023-03-17T14:53:49.005Z,20.82
2023-03-17T14:54:49.038Z,20.73
2023-03-17T14:55:49.106Z,20.67
2023-03-17T14:56:49.074Z,20.79
2023-03-17T14:57:49.035Z,20.70
2023-03-17T14:58:49.043Z,20.64
2023-03-17T14:59:49.043Z,20.59
2023-03-17T15:00:49.093Z,20.61
2023-03-17T15:01:49.049Z,20.52
2023-03-17T15:02:49.050Z,20.54
2023-03-17T15:03:49.066Z,20.55
2023-03-17T15:04:49.045Z,20.55
2023-03-17T15:05:49.104Z,20.58
2023-03-17T15:06:49.085Z,20.61
2023-03-17T15:07:49.099Z,20.67
2023-03-17T15:08:49.120Z,20.62
2023-03-17T15:09:49.216Z,20.61
2023-03-17T15:10:49.143Z,20.53
2023-03-17T15:11:49.087Z,20.56
2023-03-17T15:12:49.108Z,20.52
2023-03-17T15:13:49.101Z,20.43
2023-03-17T15:14:49.113Z,20.46
2023-03-17T15:15:49.123Z,20.35
2023-03-17T15:16:49.174Z,20.47
2023-03-17T15:17:49.147Z,20.40
2023-03-17T15:18:49.094Z,20.28
2023-03-17T15:19:49.112Z,20.28
2023-03-17T15:20:49.097Z,20.29
2023-03-17T15:21:49.106Z,20.26
2023-03-17T15:22:49.167Z,20.29
2023-03-17T15:23:49.172Z,20.23
2023-03-17T15:24:49.132Z,20.21
2023-03-17T15:25:49.169Z,20.17
2023-03-17T15:26:49.139Z,20.09
2023-03-17T15:27:49.142Z,20.08
2023-03-17T15:28:49.137Z,20.01
2023-03-17T15:29:49.159Z,20.11
2023-03-17T15:30:49.700Z,20.09
2023-03-17T15:31:49.197Z,20.06
2023-03-17T15:32:49.218Z,20.00
2023-03-17T15:33:49.194Z,20.03
2023-03-17T15:34:49.198Z,20.05
2023-03-17T15:35:49.283Z,19.99
2023-03-17T15:36:49.199Z,19.96
2023-03-17T15:37:49.211Z,19.86
2023-03-17T15:38:49.269Z,19.82
2023-03-17T15:39:49.262Z,19.82
2023-03-17T15:40:49.243Z,19.82
2023-03-17T15:41:49.231Z,19.92
2023-03-17T15:42:49.232Z,19.91
2023-03-17T15:43:49.255Z,19.91
2023-03-17T15:44:49.246Z,19.74
2023-03-17T15:45:49.344Z,19.80
2023-03-17T15:46:49.283Z,19.89
2023-03-17T15:47:49.268Z,19.86
2023-03-17T15:48:49.269Z,19.86
2023-03-17T15:49:49.323Z,19.91
2023-03-17T15:50:49.304Z,19.77
2023-03-17T15:51:49.288Z,19.97
2023-03-17T15:52:49.341Z,19.83
2023-03-17T15:53:49.352Z,19.80
2023-03-17T15:54:49.393Z,19.71
2023-03-17T15:55:49.329Z,19.71
2023-03-17T15:56:49.390Z,19.67
2023-03-17T15:57:55.362Z,19.65
2023-03-17T15:58:50.367Z,19.62
2023-03-17T15:59:49.320Z,19.65
2023-03-17T16:00:49.340Z,19.60
2023-03-17T16:01:49.307Z,19.76
2023-03-17T16:02:49.268Z,19.71
2023-03-17T16:03:49.273Z,19.74
2023-03-17T16:04:49.240Z,19.79
2023-03-17T16:05:49.248Z,19.80
2023-03-17T16:06:49.309Z,19.82
2023-03-17T16:07:49.185Z,19.73
2023-03-17T16:08:49.177Z,19.71
2023-03-17T16:09:49.169Z,19.68
2023-03-17T16:10:49.157Z,19.76
2023-03-17T16:11:49.108Z,19.74
2023-03-17T16:12:49.120Z,19.73
2023-03-17T16:13:49.077Z,19.69
2023-03-17T16:14:49.091Z,19.66
2023-03-17T16:15:49.079Z,19.63
2023-03-17T16:16:49.140Z,19.41
2023-03-17T16:17:49.109Z,19.48
2023-03-17T16:18:49.116Z,19.68
2023-03-17T16:19:49.083Z,19.60
2023-03-17T16:20:49.132Z,19.54
2023-03-17T16:21:49.180Z,19.47
2023-03-17T16:22:49.153Z,19.53
2023-03-17T16:23:49.110Z,19.69
2023-03-17T16:24:49.150Z,19.54
2023-03-17T16:25:49.154Z,19.62
2023-03-17T16:26:49.176Z,19.54
2023-03-17T16:27:49.206Z,19.56
2023-03-17T16:28:49.197Z,19.54
2023-03-17T16:29:49.194Z,19.51
2023-03-17T16:30:49.263Z,19.37
2023-03-17T16:31:49.218Z,19.39
2023-03-17T16:32:49.294Z,19.42
2023-03-17T16:33:49.263Z,19.33
2023-03-17T16:34:49.234Z,19.35
2023-03-17T16:35:49.341Z,19.40
2023-03-17T16:36:49.308Z,19.37
2023-03-17T16:37:49.297Z,19.30
2023-03-17T16:38:49.303Z,19.46
2023-03-17T16:39:49.373Z,19.33
2023-03-17T16:40:49.341Z,19.37
2023-03-17T16:41:49.395Z,19.42
2023-03-17T16:42:49.379Z,19.37
2023-03-17T16:43:49.391Z,19.25
2023-03-17T16:44:49.448Z,19.36
2023-03-17T16:45:49.478Z,19.34
2023-03-17T16:46:49.583Z,19.28
2023-03-17T16:47:49.477Z,19.25
2023-03-17T16:48:49.513Z,19.18
2023-03-17T16:49:49.484Z,19.24
2023-03-17T16:50:49.542Z,19.22
2023-03-17T16:51:50.647Z,19.18
2023-03-17T16:52:49.583Z,19.13
2023-03-17T16:53:49.565Z,19.25
2023-03-17T16:54:49.563Z,19.18
2023-03-17T16:55:49.582Z,19.07
2023-03-17T16:56:49.626Z,19.10
2023-03-17T16:57:49.600Z,19.12
2023-03-17T16:58:49.598Z,19.02
2023-03-17T16:59:50.072Z,19.04
2023-03-17T17:00:49.617Z,19.11
2023-03-17T17:01:49.876Z,18.98
2023-03-17T17:02:49.981Z,19.05
2023-03-17T17:03:49.687Z,19.11
2023-03-17T17:04:49.677Z,19.05
2023-03-17T17:05:50.175Z,19.13
2023-03-17T17:06:49.713Z,19.07
2023-03-17T17:07:49.704Z,19.16
2023-03-17T17:08:49.707Z,19.13
2023-03-17T17:09:49.727Z,19.13
2023-03-17T17:10:49.752Z,19.10
2023-03-17T17:11:49.791Z,19.11
2023-03-17T17:12:49.842Z,19.10
2023-03-17T17:13:49.822Z,19.10
2023-03-17T17:14:49.845Z,19.13
2023-03-17T17:15:49.865Z,19.19
2023-03-17T17:16:49.867Z,19.14
2023-03-17T17:17:49.871Z,19.08
2023-03-17T17:18:49.860Z,19.04
2023-03-17T17:19:49.888Z,19.11
2023-03-17T17:20:49.899Z,19.08
2023-03-17T17:21:49.919Z,18.99
2023-03-17T17:22:49.935Z,18.93
2023-03-17T17:23:52.691Z,18.81
2023-03-17T17:24:49.900Z,18.75
2023-03-17T17:25:49.923Z,18.75
2023-03-17T17:26:49.884Z,18.72
2023-03-17T17:27:49.866Z,18.76
2023-03-17T17:28:49.869Z,18.76
2023-03-17T17:29:49.837Z,18.73
2023-03-17T17:30:49.819Z,18.77
2023-03-17T17:31:50.108Z,18.70
2023-03-17T17:32:49.779Z,18.79
2023-03-17T17:33:49.763Z,18.84
2023-03-17T17:34:49.779Z,18.79
2023-03-17T17:35:49.744Z,18.77
2023-03-17T17:36:49.752Z,18.85
2023-03-17T17:37:49.714Z,18.81
2023-03-17T17:38:49.710Z,18.77
2023-03-17T17:39:49.692Z,18.65
2023-03-17T17:40:49.677Z,18.71
2023-03-17T17:41:49.653Z,18.63
2023-03-17T17:42:49.618Z,18.59
2023-03-17T17:43:49.636Z,18.58
2023-03-17T17:44:49.655Z,18.56
2023-03-17T17:45:49.646Z,18.46
2023-03-17T17:46:49.721Z,18.50
2023-03-17T17:47:49.662Z,18.50
2023-03-17T17:48:49.595Z,18.52
2023-03-17T17:49:49.597Z,18.53
2023-03-17T17:50:49.600Z,18.52
2023-03-17T17:51:49.569Z,18.56
2023-03-17T17:52:49.560Z,18.53
2023-03-17T17:53:49.564Z,18.58
2023-03-17T17:54:49.550Z,18.50
2023-03-17T17:55:49.539Z,18.52
2023-03-17T17:56:49.507Z,18.47
2023-03-17T17:57:51.958Z,18.49
2023-03-17T17:58:49.524Z,18.44
2023-03-17T17:59:49.479Z,18.27
2023-03-17T18:00:49.497Z,18.41
2023-03-17T18:01:49.498Z,18.44
2023-03-17T18:02:49.475Z,18.49
2023-03-17T18:03:49.488Z,18.41
2023-03-17T18:04:50.114Z,18.35
2023-03-17T18:05:49.533Z,18.33
2023-03-17T18:06:49.444Z,18.41
2023-03-17T18:07:49.433Z,18.27
2023-03-17T18:08:49.449Z,18.21
2023-03-17T18:09:49.387Z,18.29